ARG1621 SAZB-SABE
Flight info
| Callsign | ARG1621 |
|---|---|
| Flight time | 0h 59m |
| Altitude | 35000 |
| Route | PULAS1C PULAS UW22 VALOS VALOS9R |
| Aircraft | B738/M-SDE2E3FGHIRWXY/LB1 |
Departure
| Time | 2026-05-08 11:51 |
|---|---|
| Airport | Comandante Espora Airport (SAZB) |
Arrival
| Time | 2026-05-08 12:51 |
|---|---|
| Airport | Aeroparque Jorge Newbery (SABE) |
| Time | Latitude | Longitude | Altitude | Speed | Heading |
|---|---|---|---|---|---|
| 2026-05-08 11:27 | -38.71643 | -62.16306 | 256 ft | 0 kts | 276° |
| 2026-05-08 11:43 | -38.71644 | -62.16295 | 256 ft | 4 kts | 281° |
| 2026-05-08 11:43 | -38.71653 | -62.16265 | 256 ft | 4 kts | 310° |
| 2026-05-08 11:43 | -38.71672 | -62.16247 | 256 ft | 4 kts | 355° |
| 2026-05-08 11:43 | -38.71681 | -62.16246 | 256 ft | 0 kts | 7° |
| 2026-05-08 11:46 | -38.71680 | -62.16246 | 256 ft | 1 kts | 7° |
| 2026-05-08 11:46 | -38.71672 | -62.16245 | 256 ft | 2 kts | 5° |
| 2026-05-08 11:46 | -38.71652 | -62.16241 | 256 ft | 3 kts | 18° |
| 2026-05-08 11:47 | -38.71652 | -62.16240 | 256 ft | 0 kts | 20° |
| 2026-05-08 11:47 | -38.71647 | -62.16233 | 256 ft | 2 kts | 47° |
| 2026-05-08 11:47 | -38.71644 | -62.16202 | 256 ft | 6 kts | 91° |
| 2026-05-08 11:47 | -38.71650 | -62.16121 | 256 ft | 12 kts | 97° |
| 2026-05-08 11:48 | -38.71626 | -62.16013 | 256 ft | 13 kts | 57° |
| 2026-05-08 11:48 | -38.71591 | -62.15938 | 256 ft | 8 kts | 59° |
| 2026-05-08 11:48 | -38.71581 | -62.15918 | 256 ft | 0 kts | 59° |
| 2026-05-08 11:48 | -38.71581 | -62.15917 | 256 ft | 0 kts | 59° |
| 2026-05-08 11:49 | -38.71577 | -62.15909 | 256 ft | 2 kts | 59° |
| 2026-05-08 11:49 | -38.71570 | -62.15892 | 256 ft | 3 kts | 61° |
| 2026-05-08 11:49 | -38.71562 | -62.15860 | 257 ft | 5 kts | 77° |
| 2026-05-08 11:49 | -38.71557 | -62.15808 | 257 ft | 7 kts | 97° |
| 2026-05-08 11:50 | -38.71596 | -62.15765 | 257 ft | 8 kts | 166° |
| 2026-05-08 11:50 | -38.71656 | -62.15742 | 257 ft | 12 kts | 163° |
| 2026-05-08 11:50 | -38.71932 | -62.15649 | 256 ft | 82 kts | 165° |
| 2026-05-08 11:50 | -38.72690 | -62.15339 | 256 ft | 138 kts | 178° |
| 2026-05-08 11:51 | -38.73778 | -62.15001 | 775 ft | 167 kts | 169° |
| 2026-05-08 11:51 | -38.74813 | -62.14398 | 2181 ft | 166 kts | 152° |
| 2026-05-08 11:51 | -38.75538 | -62.13031 | 2908 ft | 209 kts | 119° |
| 2026-05-08 11:51 | -38.75701 | -62.10988 | 3171 ft | 256 kts | 90° |
| 2026-05-08 11:52 | -38.75066 | -62.08728 | 3550 ft | 286 kts | 61° |
| 2026-05-08 11:52 | -38.73800 | -62.06643 | 4044 ft | 303 kts | 51° |
| 2026-05-08 11:52 | -38.72479 | -62.04553 | 5139 ft | 296 kts | 58° |
| 2026-05-08 11:52 | -38.71392 | -62.02386 | 6397 ft | 288 kts | 63° |
| 2026-05-08 11:53 | -38.70406 | -62.00101 | 7175 ft | 297 kts | 65° |
| 2026-05-08 11:53 | -38.69444 | -61.97786 | 8078 ft | 300 kts | 65° |
| 2026-05-08 11:53 | -38.68375 | -61.95428 | 9039 ft | 305 kts | 53° |
| 2026-05-08 11:53 | -38.66774 | -61.93634 | 9730 ft | 318 kts | 28° |
| 2026-05-08 11:54 | -38.64674 | -61.92741 | 10513 ft | 321 kts | 6° |
| 2026-05-08 11:54 | -38.62437 | -61.92619 | 11326 ft | 324 kts | 0° |
| 2026-05-08 11:54 | -38.60204 | -61.91929 | 11856 ft | 341 kts | 27° |
| 2026-05-08 11:54 | -38.58158 | -61.90322 | 12595 ft | 346 kts | 34° |
| 2026-05-08 11:55 | -38.56153 | -61.88635 | 13606 ft | 346 kts | 33° |
| 2026-05-08 11:55 | -38.54096 | -61.87027 | 14377 ft | 349 kts | 31° |
| 2026-05-08 11:55 | -38.51976 | -61.85464 | 15091 ft | 355 kts | 30° |
| 2026-05-08 11:55 | -38.49802 | -61.83922 | 15762 ft | 361 kts | 28° |
| 2026-05-08 11:56 | -38.47578 | -61.82383 | 16534 ft | 362 kts | 28° |
| 2026-05-08 11:56 | -38.45358 | -61.80867 | 17444 ft | 362 kts | 27° |
| 2026-05-08 11:56 | -38.43120 | -61.79350 | 18156 ft | 366 kts | 27° |
| 2026-05-08 11:56 | -38.40854 | -61.77820 | 18713 ft | 373 kts | 28° |
| 2026-05-08 11:57 | -38.38542 | -61.76261 | 19257 ft | 378 kts | 28° |
| 2026-05-08 11:57 | -38.36207 | -61.74688 | 19934 ft | 381 kts | 28° |
| 2026-05-08 11:57 | -38.33840 | -61.73096 | 20458 ft | 387 kts | 28° |
| 2026-05-08 11:57 | -38.31442 | -61.71483 | 21024 ft | 391 kts | 28° |
| 2026-05-08 11:58 | -38.29034 | -61.69864 | 21772 ft | 391 kts | 28° |
| 2026-05-08 11:58 | -38.26610 | -61.68236 | 22306 ft | 397 kts | 28° |
| 2026-05-08 11:58 | -38.24146 | -61.66582 | 22687 ft | 407 kts | 28° |
| 2026-05-08 11:59 | -38.19098 | -61.63199 | 23762 ft | 413 kts | 29° |
| 2026-05-08 11:59 | -38.16537 | -61.61483 | 24165 ft | 419 kts | 28° |
| 2026-05-08 11:59 | -38.13952 | -61.59753 | 24370 ft | 430 kts | 28° |
| 2026-05-08 11:59 | -38.11299 | -61.57980 | 24837 ft | 432 kts | 28° |
| 2026-05-08 12:00 | -38.08627 | -61.56196 | 25268 ft | 436 kts | 28° |
| 2026-05-08 12:00 | -38.05929 | -61.54395 | 25675 ft | 440 kts | 27° |
| 2026-05-08 12:00 | -38.03208 | -61.52580 | 26150 ft | 442 kts | 27° |
| 2026-05-08 12:00 | -38.00470 | -61.50756 | 26483 ft | 448 kts | 27° |
| 2026-05-08 12:01 | -37.97689 | -61.48905 | 26813 ft | 454 kts | 28° |
| 2026-05-08 12:01 | -37.94945 | -61.46890 | 27212 ft | 457 kts | 33° |
| 2026-05-08 12:01 | -37.92298 | -61.44630 | 27607 ft | 460 kts | 36° |
| 2026-05-08 12:01 | -37.89690 | -61.42260 | 27958 ft | 464 kts | 36° |
| 2026-05-08 12:02 | -37.87071 | -61.39840 | 28302 ft | 468 kts | 36° |
| 2026-05-08 12:02 | -37.85286 | -61.38198 | 28554 ft | 470 kts | 36° |
| 2026-05-08 12:02 | -37.82622 | -61.35772 | 28928 ft | 473 kts | 36° |
| 2026-05-08 12:02 | -37.79963 | -61.33383 | 29285 ft | 476 kts | 35° |
| 2026-05-08 12:03 | -37.76316 | -61.30145 | 29632 ft | 483 kts | 35° |
| 2026-05-08 12:03 | -37.74445 | -61.28495 | 29854 ft | 485 kts | 34° |
| 2026-05-08 12:03 | -37.71677 | -61.26062 | 30298 ft | 483 kts | 34° |
| 2026-05-08 12:03 | -37.68970 | -61.23687 | 30868 ft | 478 kts | 34° |
| 2026-05-08 12:04 | -37.66258 | -61.21309 | 31472 ft | 472 kts | 34° |
| 2026-05-08 12:04 | -37.63568 | -61.18951 | 31982 ft | 469 kts | 34° |
| 2026-05-08 12:04 | -37.60891 | -61.16607 | 32439 ft | 467 kts | 34° |
| 2026-05-08 12:04 | -37.58232 | -61.14279 | 32901 ft | 464 kts | 33° |
| 2026-05-08 12:05 | -37.55580 | -61.11959 | 33353 ft | 462 kts | 33° |
| 2026-05-08 12:05 | -37.52941 | -61.09651 | 33777 ft | 460 kts | 33° |
| 2026-05-08 12:05 | -37.50318 | -61.07360 | 34113 ft | 459 kts | 33° |
| 2026-05-08 12:05 | -37.47684 | -61.05061 | 34370 ft | 460 kts | 33° |
| 2026-05-08 12:06 | -37.45051 | -61.02766 | 34612 ft | 461 kts | 33° |
| 2026-05-08 12:06 | -37.42404 | -61.00460 | 34754 ft | 465 kts | 33° |
| 2026-05-08 12:06 | -37.37056 | -60.95810 | 34741 ft | 467 kts | 33° |
| 2026-05-08 12:07 | -37.31761 | -60.91209 | 34729 ft | 459 kts | 33° |
| 2026-05-08 12:07 | -37.26510 | -60.86655 | 34748 ft | 459 kts | 33° |
| 2026-05-08 12:08 | -37.21240 | -60.82096 | 34748 ft | 461 kts | 33° |
| 2026-05-08 12:08 | -37.15958 | -60.77533 | 34745 ft | 462 kts | 33° |
| 2026-05-08 12:09 | -37.10664 | -60.72966 | 34741 ft | 463 kts | 32° |
| 2026-05-08 12:09 | -37.05359 | -60.68399 | 34724 ft | 463 kts | 32° |
| 2026-05-08 12:10 | -37.00054 | -60.63838 | 34739 ft | 462 kts | 32° |
| 2026-05-08 12:10 | -36.94786 | -60.59318 | 34730 ft | 462 kts | 32° |
| 2026-05-08 12:11 | -36.89492 | -60.54783 | 34731 ft | 461 kts | 32° |
| 2026-05-08 12:11 | -36.84210 | -60.50266 | 34728 ft | 460 kts | 32° |
| 2026-05-08 12:12 | -36.78935 | -60.45761 | 34723 ft | 459 kts | 31° |
| 2026-05-08 12:12 | -36.73671 | -60.41274 | 34729 ft | 457 kts | 31° |
| 2026-05-08 12:13 | -36.68423 | -60.36811 | 34730 ft | 456 kts | 31° |
| 2026-05-08 12:13 | -36.63185 | -60.32363 | 34730 ft | 455 kts | 31° |
| 2026-05-08 12:14 | -36.57955 | -60.27928 | 34720 ft | 454 kts | 31° |
| 2026-05-08 12:14 | -36.52734 | -60.23507 | 34706 ft | 454 kts | 31° |
| 2026-05-08 12:15 | -36.47514 | -60.19111 | 34719 ft | 453 kts | 31° |
| 2026-05-08 12:15 | -36.42291 | -60.14735 | 34720 ft | 452 kts | 30° |
| 2026-05-08 12:16 | -36.37073 | -60.10371 | 34720 ft | 452 kts | 30° |
| 2026-05-08 12:16 | -36.31858 | -60.06014 | 34720 ft | 452 kts | 30° |
| 2026-05-08 12:17 | -36.26642 | -60.01660 | 34714 ft | 452 kts | 30° |
| 2026-05-08 12:17 | -36.21432 | -59.97319 | 34706 ft | 451 kts | 30° |
| 2026-05-08 12:18 | -36.16222 | -59.92984 | 34705 ft | 451 kts | 30° |
| 2026-05-08 12:18 | -36.11010 | -59.88655 | 34704 ft | 451 kts | 30° |
| 2026-05-08 12:19 | -36.05807 | -59.84340 | 34720 ft | 451 kts | 30° |
| 2026-05-08 12:19 | -36.00637 | -59.80061 | 34563 ft | 447 kts | 30° |
| 2026-05-08 12:20 | -35.98066 | -59.77933 | 34246 ft | 441 kts | 30° |
| 2026-05-08 12:20 | -35.95533 | -59.75837 | 33890 ft | 436 kts | 29° |
| 2026-05-08 12:20 | -35.93025 | -59.73765 | 33511 ft | 432 kts | 29° |
| 2026-05-08 12:20 | -35.90529 | -59.71706 | 33088 ft | 429 kts | 30° |
| 2026-05-08 12:21 | -35.88057 | -59.69670 | 32685 ft | 425 kts | 30° |
| 2026-05-08 12:21 | -35.85602 | -59.67647 | 32303 ft | 422 kts | 30° |
| 2026-05-08 12:21 | -35.83174 | -59.65649 | 31930 ft | 418 kts | 30° |
| 2026-05-08 12:21 | -35.80758 | -59.63663 | 31562 ft | 415 kts | 30° |
| 2026-05-08 12:22 | -35.78361 | -59.61693 | 31198 ft | 413 kts | 30° |
| 2026-05-08 12:22 | -35.75977 | -59.59736 | 30832 ft | 411 kts | 30° |
| 2026-05-08 12:22 | -35.73606 | -59.57791 | 30481 ft | 409 kts | 30° |
| 2026-05-08 12:22 | -35.71241 | -59.55852 | 30121 ft | 407 kts | 30° |
| 2026-05-08 12:23 | -35.68891 | -59.53927 | 29737 ft | 406 kts | 30° |
| 2026-05-08 12:23 | -35.66551 | -59.52010 | 29332 ft | 403 kts | 30° |
| 2026-05-08 12:23 | -35.64228 | -59.50108 | 28957 ft | 399 kts | 30° |
| 2026-05-08 12:23 | -35.61930 | -59.48229 | 28568 ft | 395 kts | 30° |
| 2026-05-08 12:24 | -35.59647 | -59.46363 | 28194 ft | 392 kts | 30° |
| 2026-05-08 12:24 | -35.57385 | -59.44516 | 27827 ft | 389 kts | 30° |
| 2026-05-08 12:24 | -35.55135 | -59.42680 | 27456 ft | 387 kts | 30° |
| 2026-05-08 12:24 | -35.52906 | -59.40861 | 27095 ft | 384 kts | 30° |
| 2026-05-08 12:25 | -35.50685 | -59.39052 | 26747 ft | 382 kts | 30° |
| 2026-05-08 12:25 | -35.48479 | -59.37255 | 26386 ft | 379 kts | 30° |
| 2026-05-08 12:25 | -35.46381 | -59.35311 | 26008 ft | 381 kts | 45° |
| 2026-05-08 12:25 | -35.44889 | -59.32641 | 25685 ft | 381 kts | 65° |
| 2026-05-08 12:26 | -35.43871 | -59.29697 | 25370 ft | 378 kts | 67° |
| 2026-05-08 12:26 | -35.42902 | -59.26705 | 25020 ft | 377 kts | 68° |
| 2026-05-08 12:26 | -35.41948 | -59.23720 | 24673 ft | 376 kts | 68° |
| 2026-05-08 12:26 | -35.40991 | -59.20742 | 24328 ft | 375 kts | 68° |
| 2026-05-08 12:27 | -35.40027 | -59.17772 | 23972 ft | 375 kts | 68° |
| 2026-05-08 12:27 | -35.39057 | -59.14812 | 23617 ft | 375 kts | 68° |
| 2026-05-08 12:27 | -35.38080 | -59.11852 | 23259 ft | 375 kts | 68° |
| 2026-05-08 12:27 | -35.37099 | -59.08894 | 22860 ft | 374 kts | 68° |
| 2026-05-08 12:28 | -35.36117 | -59.05941 | 22490 ft | 373 kts | 68° |
| 2026-05-08 12:28 | -35.35142 | -59.03015 | 22130 ft | 370 kts | 67° |
| 2026-05-08 12:28 | -35.34170 | -59.00102 | 21790 ft | 368 kts | 67° |
| 2026-05-08 12:28 | -35.33205 | -58.97213 | 21448 ft | 365 kts | 67° |
| 2026-05-08 12:29 | -35.32246 | -58.94344 | 21114 ft | 363 kts | 67° |
| 2026-05-08 12:29 | -35.31293 | -58.91497 | 20783 ft | 360 kts | 67° |
| 2026-05-08 12:29 | -35.30346 | -58.88669 | 20449 ft | 358 kts | 67° |
| 2026-05-08 12:29 | -35.29405 | -58.85865 | 20119 ft | 355 kts | 67° |
| 2026-05-08 12:30 | -35.28470 | -58.83078 | 19798 ft | 353 kts | 67° |
| 2026-05-08 12:30 | -35.27540 | -58.80308 | 19451 ft | 350 kts | 67° |
| 2026-05-08 12:30 | -35.26617 | -58.77563 | 19143 ft | 347 kts | 67° |
| 2026-05-08 12:30 | -35.25703 | -58.74845 | 18821 ft | 345 kts | 67° |
| 2026-05-08 12:31 | -35.24788 | -58.72129 | 18491 ft | 344 kts | 67° |
| 2026-05-08 12:31 | -35.23891 | -58.69466 | 18175 ft | 342 kts | 67° |
| 2026-05-08 12:31 | -35.22973 | -58.66747 | 17826 ft | 341 kts | 67° |
| 2026-05-08 12:31 | -35.22072 | -58.64078 | 17449 ft | 339 kts | 68° |
| 2026-05-08 12:32 | -35.21175 | -58.61422 | 17131 ft | 336 kts | 68° |
| 2026-05-08 12:32 | -35.20297 | -58.58823 | 16785 ft | 334 kts | 68° |
| 2026-05-08 12:32 | -35.19412 | -58.56208 | 16458 ft | 332 kts | 68° |
| 2026-05-08 12:32 | -35.18531 | -58.53608 | 16141 ft | 329 kts | 68° |
| 2026-05-08 12:33 | -35.17659 | -58.51036 | 15823 ft | 327 kts | 68° |
| 2026-05-08 12:33 | -35.16806 | -58.48469 | 15491 ft | 325 kts | 69° |
| 2026-05-08 12:33 | -35.15974 | -58.45910 | 15180 ft | 323 kts | 68° |
| 2026-05-08 12:33 | -35.15151 | -58.43370 | 14879 ft | 321 kts | 68° |
| 2026-05-08 12:34 | -35.14329 | -58.40837 | 14556 ft | 320 kts | 68° |
| 2026-05-08 12:34 | -35.13510 | -58.38314 | 14260 ft | 318 kts | 68° |
| 2026-05-08 12:34 | -35.12697 | -58.35816 | 13941 ft | 316 kts | 68° |
| 2026-05-08 12:34 | -35.11883 | -58.33322 | 13623 ft | 315 kts | 69° |
| 2026-05-08 12:35 | -35.11073 | -58.30839 | 13304 ft | 313 kts | 69° |
| 2026-05-08 12:35 | -35.10267 | -58.28375 | 12958 ft | 312 kts | 69° |
| 2026-05-08 12:35 | -35.09465 | -58.25924 | 12636 ft | 310 kts | 69° |
| 2026-05-08 12:35 | -35.08669 | -58.23493 | 12338 ft | 308 kts | 69° |
| 2026-05-08 12:36 | -35.07876 | -58.21073 | 12032 ft | 306 kts | 69° |
| 2026-05-08 12:36 | -35.07089 | -58.18672 | 11731 ft | 304 kts | 69° |
| 2026-05-08 12:36 | -35.06304 | -58.16280 | 11427 ft | 302 kts | 69° |
| 2026-05-08 12:36 | -35.05524 | -58.13907 | 11138 ft | 301 kts | 69° |
| 2026-05-08 12:37 | -35.04744 | -58.11533 | 10628 ft | 302 kts | 69° |
| 2026-05-08 12:37 | -35.03962 | -58.09155 | 10241 ft | 302 kts | 69° |
| 2026-05-08 12:37 | -35.03179 | -58.06779 | 9903 ft | 302 kts | 69° |
| 2026-05-08 12:37 | -35.02402 | -58.04418 | 9691 ft | 297 kts | 69° |
| 2026-05-08 12:38 | -35.01638 | -58.02100 | 9456 ft | 294 kts | 69° |
| 2026-05-08 12:38 | -35.00873 | -57.99783 | 9148 ft | 294 kts | 69° |
| 2026-05-08 12:38 | -35.00110 | -57.97474 | 8857 ft | 294 kts | 69° |
| 2026-05-08 12:38 | -34.99214 | -57.95242 | 8546 ft | 294 kts | 52° |
| 2026-05-08 12:39 | -34.97664 | -57.93698 | 8292 ft | 286 kts | 21° |
| 2026-05-08 12:39 | -34.95778 | -57.93171 | 8005 ft | 275 kts | 354° |
| 2026-05-08 12:39 | -34.93943 | -57.93584 | 7747 ft | 265 kts | 334° |
| 2026-05-08 12:39 | -34.92373 | -57.94681 | 7468 ft | 258 kts | 318° |
| 2026-05-08 12:40 | -34.90953 | -57.96009 | 7191 ft | 257 kts | 317° |
| 2026-05-08 12:40 | -34.89542 | -57.97356 | 6919 ft | 257 kts | 316° |
| 2026-05-08 12:40 | -34.88139 | -57.98715 | 6650 ft | 257 kts | 316° |
| 2026-05-08 12:40 | -34.86734 | -58.00064 | 6372 ft | 257 kts | 317° |
| 2026-05-08 12:41 | -34.85346 | -58.01380 | 6115 ft | 256 kts | 317° |
| 2026-05-08 12:41 | -34.83927 | -58.02723 | 5834 ft | 254 kts | 316° |
| 2026-05-08 12:41 | -34.82536 | -58.04039 | 5536 ft | 253 kts | 315° |
| 2026-05-08 12:41 | -34.81173 | -58.05326 | 5296 ft | 250 kts | 315° |
| 2026-05-08 12:42 | -34.79805 | -58.06611 | 5038 ft | 247 kts | 315° |
| 2026-05-08 12:42 | -34.78451 | -58.07887 | 4782 ft | 245 kts | 316° |
| 2026-05-08 12:42 | -34.77110 | -58.09155 | 4521 ft | 244 kts | 316° |
| 2026-05-08 12:42 | -34.75770 | -58.10413 | 4260 ft | 242 kts | 315° |
| 2026-05-08 12:43 | -34.74445 | -58.11666 | 4020 ft | 240 kts | 315° |
| 2026-05-08 12:43 | -34.73151 | -58.12875 | 3970 ft | 228 kts | 315° |
| 2026-05-08 12:43 | -34.71930 | -58.14014 | 3868 ft | 214 kts | 315° |
| 2026-05-08 12:43 | -34.70789 | -58.15082 | 3768 ft | 199 kts | 313° |
| 2026-05-08 12:44 | -34.69932 | -58.16261 | 3663 ft | 176 kts | 292° |
| 2026-05-08 12:44 | -34.69301 | -58.17470 | 3588 ft | 165 kts | 293° |
| 2026-05-08 12:44 | -34.68675 | -58.18613 | 3547 ft | 161 kts | 293° |
| 2026-05-08 12:44 | -34.68039 | -58.19773 | 3406 ft | 169 kts | 293° |
| 2026-05-08 12:45 | -34.67380 | -58.20968 | 3269 ft | 169 kts | 291° |
| 2026-05-08 12:45 | -34.66741 | -58.22111 | 3264 ft | 157 kts | 291° |
| 2026-05-08 12:45 | -34.66136 | -58.23195 | 3235 ft | 153 kts | 290° |
| 2026-05-08 12:45 | -34.65534 | -58.24293 | 3123 ft | 160 kts | 290° |
| 2026-05-08 12:46 | -34.64921 | -58.25401 | 2965 ft | 154 kts | 290° |
| 2026-05-08 12:46 | -34.64531 | -58.26097 | 2861 ft | 147 kts | 290° |
| 2026-05-08 12:46 | -34.63979 | -58.27087 | 2677 ft | 140 kts | 290° |
| 2026-05-08 12:46 | -34.63440 | -58.28060 | 2530 ft | 137 kts | 291° |
| 2026-05-08 12:47 | -34.62743 | -58.29314 | 2308 ft | 133 kts | 291° |
| 2026-05-08 12:47 | -34.62238 | -58.30219 | 2150 ft | 127 kts | 291° |
| 2026-05-08 12:47 | -34.61908 | -58.30812 | 2034 ft | 125 kts | 292° |
| 2026-05-08 12:47 | -34.61262 | -58.31977 | 1873 ft | 125 kts | 293° |
| 2026-05-08 12:48 | -34.60771 | -58.32865 | 1683 ft | 125 kts | 294° |
| 2026-05-08 12:48 | -34.60447 | -58.33445 | 1538 ft | 120 kts | 295° |
| 2026-05-08 12:48 | -34.59952 | -58.34272 | 1317 ft | 124 kts | 297° |
| 2026-05-08 12:48 | -34.59438 | -58.35138 | 1127 ft | 129 kts | 297° |
| 2026-05-08 12:49 | -34.58933 | -58.36017 | 913 ft | 125 kts | 296° |
| 2026-05-08 12:49 | -34.58455 | -58.36883 | 739 ft | 121 kts | 296° |
| 2026-05-08 12:49 | -34.58004 | -58.37736 | 569 ft | 121 kts | 295° |
| 2026-05-08 12:49 | -34.57554 | -58.38630 | 433 ft | 127 kts | 298° |
| 2026-05-08 12:50 | -34.57060 | -58.39535 | 302 ft | 131 kts | 301° |
| 2026-05-08 12:50 | -34.56536 | -58.40478 | 108 ft | 136 kts | 300° |
| 2026-05-08 12:50 | -34.56037 | -58.41385 | 25 ft | 117 kts | 300° |
| 2026-05-08 12:50 | -34.55664 | -58.42048 | 28 ft | 72 kts | 303° |
| 2026-05-08 12:51 | -34.55527 | -58.42294 | 27 ft | 25 kts | 304° |
| 2026-05-08 12:51 | -34.55381 | -58.42499 | 25 ft | 6 kts | 9° |
| 2026-05-08 12:51 | -34.55363 | -58.42473 | 24 ft | 4 kts | 71° |
| 2026-05-08 12:52 | -34.55363 | -58.42437 | 24 ft | 4 kts | 97° |
| 2026-05-08 12:52 | -34.55378 | -58.42365 | 27 ft | 5 kts | 117° |
| 2026-05-08 12:52 | -34.55399 | -58.42327 | 25 ft | 7 kts | 126° |
| 2026-05-08 12:53 | -34.55437 | -58.42264 | 27 ft | 12 kts | 126° |
| 2026-05-08 12:53 | -34.55497 | -58.42168 | 26 ft | 16 kts | 128° |
| 2026-05-08 12:53 | -34.55572 | -58.42049 | 26 ft | 19 kts | 126° |
| 2026-05-08 12:53 | -34.55645 | -58.41920 | 26 ft | 18 kts | 124° |
| 2026-05-08 12:54 | -34.55715 | -58.41794 | 25 ft | 18 kts | 124° |
| 2026-05-08 12:54 | -34.55773 | -58.41665 | 24 ft | 17 kts | 116° |
| 2026-05-08 12:54 | -34.55824 | -58.41540 | 26 ft | 16 kts | 117° |
| 2026-05-08 12:54 | -34.55875 | -58.41419 | 25 ft | 16 kts | 117° |
| 2026-05-08 12:55 | -34.55893 | -58.41305 | 24 ft | 13 kts | 45° |
| 2026-05-08 12:55 | -34.55824 | -58.41310 | 26 ft | 10 kts | 307° |
| 2026-05-08 12:55 | -34.55784 | -58.41380 | 25 ft | 10 kts | 304° |
| 2026-05-08 12:55 | -34.55750 | -58.41427 | 25 ft | 0 kts | 347° |
| 2026-05-08 12:56 | -34.55749 | -58.41427 | 25 ft | 0 kts | 352° |
| 2026-05-08 12:56 | -34.55744 | -58.41422 | 27 ft | 3 kts | 29° |
| 2026-05-08 12:56 | -34.55722 | -58.41407 | 24 ft | 1 kts | 31° |
| 2026-05-08 12:57 | -34.55716 | -58.41403 | 24 ft | 0 kts | 31° |